Artois, California
Current Conditions -  °F | °C
As of 4:55 AM on Monday 20 Oct 2014 (Local Time) from KCIC Reporting Station
Overcast Overcast  
Wind Chill: 61°   Ceiling: 5000
Heat Index: 61°   Visibility: 10mi
Dew Point: 52°   Wind: 16mph
Humidity: 72%   Direction: 150°SSE
Pressure: 29.85"   Gusts: NA
Location:  39.62°N, 122.2°W
Report Text: KCIC 201155Z AUTO 15014KT 10SM OVC050 16/11 A2985 RMK AO1
Loading
Personal Weather Stations






























Interactive Weather Map New forecast layout! Learn more

10-Day Weather Forecast

Advertisements
Track Severe Weather on mobile